createdAt,value
2023-05-12T00:01:09.332Z,6.50
2023-05-12T00:03:37.302Z,10.00
2023-05-12T00:06:05.612Z,4.50
2023-05-12T00:08:33.627Z,6.50
2023-05-12T00:11:01.847Z,9.00
2023-05-12T00:13:30.054Z,9.00
2023-05-12T00:15:59.323Z,7.67
2023-05-12T00:18:28.872Z,9.50
2023-05-12T00:20:56.928Z,8.50
2023-05-12T00:23:24.955Z,11.00
2023-05-12T00:25:52.834Z,10.00
2023-05-12T00:28:21.000Z,9.00
2023-05-12T00:30:48.845Z,12.00
2023-05-12T00:33:17.361Z,10.00
2023-05-12T00:35:48.229Z,8.00
2023-05-12T00:38:16.165Z,7.67
2023-05-12T00:40:43.999Z,6.00
2023-05-12T00:43:11.968Z,7.00
2023-05-12T00:45:39.963Z,8.50
2023-05-12T00:48:08.054Z,9.00
2023-05-12T00:50:36.123Z,8.00
2023-05-12T00:53:04.516Z,7.00
2023-05-12T00:55:33.505Z,8.33
2023-05-12T00:58:01.457Z,7.50
2023-05-12T01:00:29.941Z,7.50
2023-05-12T01:02:58.707Z,6.00
2023-05-12T01:05:41.206Z,7.00
2023-05-12T01:08:10.496Z,6.00
2023-05-12T01:10:44.586Z,9.00
2023-05-12T01:13:13.586Z,7.00
2023-05-12T01:15:46.922Z,8.00
2023-05-12T01:18:21.769Z,9.50
2023-05-12T01:20:51.473Z,6.67
2023-05-12T01:23:21.912Z,8.00
2023-05-12T01:25:51.298Z,7.00
2023-05-12T01:28:20.552Z,8.00
2023-05-12T01:30:49.362Z,8.00
2023-05-12T01:33:17.831Z,6.00
2023-05-12T01:35:45.630Z,5.00
2023-05-12T01:38:13.568Z,6.00
2023-05-12T01:40:42.020Z,6.00
2023-05-12T01:43:10.049Z,9.00
2023-05-12T01:45:38.799Z,8.50
2023-05-12T01:48:06.855Z,6.50
2023-05-12T01:50:34.857Z,6.00
2023-05-12T01:53:04.094Z,6.33
2023-05-12T01:55:50.654Z,8.00
2023-05-12T01:58:20.463Z,6.50
2023-05-12T02:00:48.684Z,13.00
2023-05-12T02:03:17.334Z,7.00
2023-05-12T02:05:45.255Z,8.00
2023-05-12T02:08:13.342Z,8.00
2023-05-12T02:10:41.241Z,9.00
2023-05-12T02:13:09.223Z,7.00
2023-05-12T02:15:37.245Z,7.00
2023-05-12T02:18:05.427Z,12.00
2023-05-12T02:20:33.458Z,6.00
2023-05-12T02:23:03.155Z,8.00
2023-05-12T02:25:31.650Z,7.00
2023-05-12T02:27:59.838Z,6.00
2023-05-12T02:30:27.738Z,7.00
2023-05-12T02:32:55.698Z,9.00
2023-05-12T02:35:23.728Z,8.00
2023-05-12T02:37:51.615Z,7.00
2023-05-12T02:40:19.839Z,9.00
2023-05-12T02:42:48.089Z,7.00
2023-05-12T02:45:15.991Z,6.00
2023-05-12T02:47:43.888Z,7.00
2023-05-12T02:50:12.109Z,7.00
2023-05-12T02:52:40.119Z,8.50
2023-05-12T02:55:08.664Z,8.00
2023-05-12T02:57:36.525Z,7.00
2023-05-12T03:00:07.720Z,9.00
2023-05-12T03:02:40.465Z,13.00
2023-05-12T03:05:09.468Z,8.00
2023-05-12T03:07:37.437Z,8.00
2023-05-12T03:10:06.081Z,10.00
2023-05-12T03:12:33.957Z,7.00
2023-05-12T03:15:04.670Z,5.00
2023-05-12T03:17:32.586Z,10.00
2023-05-12T03:20:00.504Z,8.00
2023-05-12T03:22:28.489Z,8.33
2023-05-12T03:24:58.151Z,11.50
2023-05-12T03:27:26.062Z,8.00
2023-05-12T03:29:54.741Z,12.00
2023-05-12T03:32:22.773Z,9.00
2023-05-12T03:34:50.674Z,6.00
2023-05-12T03:37:18.587Z,7.00
2023-05-12T03:39:46.424Z,9.00
2023-05-12T03:42:14.681Z,9.00
2023-05-12T03:44:42.825Z,11.00
2023-05-12T03:47:11.460Z,10.50
2023-05-12T03:49:39.509Z,10.00
2023-05-12T03:52:07.911Z,8.00
2023-05-12T03:54:37.830Z,7.00
2023-05-12T03:57:06.554Z,10.00
2023-05-12T03:59:34.581Z,9.00
2023-05-12T04:02:03.229Z,10.00
2023-05-12T04:04:31.221Z,11.50
2023-05-12T04:07:00.283Z,9.00
2023-05-12T04:09:28.125Z,8.00
2023-05-12T04:11:56.281Z,8.00
2023-05-12T04:14:31.828Z,7.00
2023-05-12T04:17:07.886Z,8.50
2023-05-12T04:19:35.799Z,8.00
2023-05-12T04:22:03.872Z,7.50
2023-05-12T04:24:31.744Z,5.00
2023-05-12T04:26:59.692Z,10.00
2023-05-12T04:29:27.624Z,9.00
2023-05-12T04:31:56.570Z,9.00
2023-05-12T04:34:24.522Z,8.00
2023-05-12T04:36:52.389Z,8.00
2023-05-12T04:41:50.019Z,5.00
2023-05-12T04:44:18.615Z,8.00
2023-05-12T04:46:46.622Z,8.00
2023-05-12T04:49:14.508Z,9.00
2023-05-12T04:51:44.594Z,10.00
2023-05-12T04:54:12.656Z,10.00
2023-05-12T04:56:42.610Z,9.00
2023-05-12T04:59:11.758Z,8.00
2023-05-12T05:01:41.642Z,8.50
2023-05-12T05:04:10.077Z,12.00
2023-05-12T05:06:38.116Z,8.00
2023-05-12T05:09:07.366Z,9.00
2023-05-12T05:11:35.403Z,8.00
2023-05-12T05:14:03.350Z,10.00
2023-05-12T05:16:31.961Z,9.50
2023-05-12T05:19:02.088Z,9.00
2023-05-12T05:21:34.756Z,12.50
2023-05-12T05:24:02.623Z,9.50
2023-05-12T05:26:30.655Z,14.00
2023-05-12T05:28:59.390Z,10.50
2023-05-12T05:31:29.114Z,11.00
2023-05-12T05:33:57.941Z,9.67
2023-05-12T05:36:26.995Z,9.67
2023-05-12T05:38:54.987Z,8.00
2023-05-12T05:41:23.800Z,9.00
2023-05-12T05:43:51.900Z,8.50
2023-05-12T05:46:19.894Z,9.00
2023-05-12T05:48:49.213Z,6.50
2023-05-12T05:51:17.596Z,7.00
2023-05-12T05:53:45.465Z,8.00
2023-05-12T05:56:14.107Z,9.00
2023-05-12T05:58:42.050Z,8.00
2023-05-12T06:01:10.357Z,8.00
2023-05-12T06:03:38.398Z,11.00
2023-05-12T06:06:07.052Z,8.00
2023-05-12T06:08:34.951Z,8.00
2023-05-12T06:11:02.809Z,9.00
2023-05-12T06:13:30.684Z,6.00
2023-05-12T06:15:58.560Z,7.00
2023-05-12T06:18:26.517Z,10.50
2023-05-12T06:20:54.585Z,13.00
2023-05-12T06:23:22.815Z,8.50
2023-05-12T06:25:50.765Z,7.67
2023-05-12T06:28:18.658Z,9.00
2023-05-12T06:30:46.977Z,8.00
2023-05-12T06:33:14.842Z,9.67
2023-05-12T06:35:42.777Z,7.00
2023-05-12T06:38:10.672Z,7.00
2023-05-12T06:40:38.568Z,7.00
2023-05-12T06:43:06.409Z,7.00
2023-05-12T06:45:36.839Z,7.00
2023-05-12T06:48:06.084Z,8.00
2023-05-12T06:50:34.202Z,6.00
2023-05-12T06:53:02.422Z,5.33
2023-05-12T06:55:30.925Z,6.50
2023-05-12T06:57:58.875Z,6.00
2023-05-12T07:00:27.048Z,8.00
2023-05-12T07:02:55.030Z,8.00
2023-05-12T07:05:23.314Z,9.00
2023-05-12T07:07:52.172Z,7.00
2023-05-12T07:10:21.264Z,8.00
2023-05-12T07:12:49.094Z,9.00
2023-05-12T07:15:18.739Z,7.00
2023-05-12T07:17:47.161Z,6.00
2023-05-12T07:20:15.765Z,5.00
2023-05-12T07:22:43.735Z,8.00
2023-05-12T07:25:11.693Z,7.00
2023-05-12T07:27:39.710Z,7.50
2023-05-12T07:30:08.581Z,5.00
2023-05-12T07:32:36.510Z,7.00
2023-05-12T07:35:04.910Z,5.50
2023-05-12T07:37:32.733Z,5.00
2023-05-12T07:40:00.808Z,5.67
2023-05-12T07:42:28.773Z,5.50
2023-05-12T07:44:56.832Z,6.00
2023-05-12T07:47:24.725Z,7.00
2023-05-12T07:49:52.544Z,6.00
2023-05-12T07:52:20.388Z,8.00
2023-05-12T07:54:48.299Z,6.00
2023-05-12T07:57:16.820Z,4.50
2023-05-12T07:59:44.692Z,8.00
2023-05-12T08:02:13.084Z,4.00
2023-05-12T08:04:42.086Z,7.00
2023-05-12T08:07:11.765Z,7.00
2023-05-12T08:09:39.597Z,5.00
2023-05-12T08:12:07.631Z,6.50
2023-05-12T08:14:35.526Z,7.00
2023-05-12T08:17:05.202Z,6.00
2023-05-12T08:19:33.132Z,4.33
2023-05-12T08:22:01.762Z,3.00
2023-05-12T08:24:29.701Z,6.00
2023-05-12T08:26:57.536Z,3.00
2023-05-12T08:29:28.317Z,4.00
2023-05-12T08:31:58.373Z,5.50
2023-05-12T08:34:26.431Z,7.00
2023-05-12T08:36:55.156Z,6.00
2023-05-12T08:39:23.183Z,7.00
2023-05-12T08:42:09.423Z,5.00
2023-05-12T08:44:38.147Z,4.00
2023-05-12T08:47:06.918Z,6.00
2023-05-12T08:49:36.668Z,5.00
2023-05-12T08:52:05.714Z,6.00
2023-05-12T08:54:36.048Z,5.33
2023-05-12T08:57:10.387Z,4.50
2023-05-12T08:59:43.860Z,6.00
2023-05-12T09:02:14.135Z,5.00
2023-05-12T09:04:42.988Z,6.50
2023-05-12T09:07:11.421Z,6.00
2023-05-12T09:09:45.136Z,4.50
2023-05-12T09:12:18.368Z,4.67
2023-05-12T09:14:52.090Z,4.50
2023-05-12T09:17:20.415Z,2.00
2023-05-12T09:19:48.281Z,4.00
2023-05-12T09:22:17.165Z,6.00
2023-05-12T09:24:45.026Z,3.00
2023-05-12T09:27:12.986Z,5.00
2023-05-12T09:29:59.194Z,4.50
2023-05-12T09:32:35.995Z,3.00
2023-05-12T09:35:11.074Z,3.50
2023-05-12T09:37:42.797Z,4.00
2023-05-12T09:40:11.690Z,3.00
2023-05-12T09:42:42.614Z,2.00
2023-05-12T09:45:10.828Z,3.00
2023-05-12T09:47:40.784Z,4.00
2023-05-12T09:50:08.990Z,4.00
2023-05-12T09:52:39.072Z,3.00
2023-05-12T09:55:12.901Z,4.00
2023-05-12T09:57:47.868Z,3.00
2023-05-12T10:00:33.124Z,6.00
2023-05-12T10:03:15.849Z,4.00
2023-05-12T10:05:50.760Z,4.00
2023-05-12T10:08:29.745Z,5.00
2023-05-12T10:11:00.196Z,4.00
2023-05-12T10:13:30.932Z,3.00
2023-05-12T10:16:00.122Z,4.00
2023-05-12T10:18:28.395Z,5.50
2023-05-12T10:20:56.888Z,5.00
2023-05-12T10:23:25.864Z,4.50
2023-05-12T10:26:02.032Z,3.50
2023-05-12T10:28:30.069Z,7.00
2023-05-12T10:30:59.033Z,4.00
2023-05-12T10:33:27.814Z,3.00
2023-05-12T10:35:57.365Z,3.00
2023-05-12T10:38:25.647Z,5.00
2023-05-12T10:41:01.761Z,4.50
2023-05-12T10:43:42.186Z,4.00
2023-05-12T10:46:13.338Z,3.00
2023-05-12T10:49:15.741Z,4.33
2023-05-12T10:51:43.658Z,5.00
2023-05-12T10:54:20.106Z,4.00
2023-05-12T10:56:48.837Z,3.50
2023-05-12T10:59:21.740Z,4.50
2023-05-12T11:02:01.878Z,4.00
2023-05-12T11:04:53.708Z,3.67
2023-05-12T11:07:26.850Z,6.00
2023-05-12T11:09:58.933Z,5.00
2023-05-12T11:15:03.432Z,4.00
2023-05-12T11:17:32.268Z,4.00
2023-05-12T11:22:29.919Z,7.00
2023-05-12T11:24:58.347Z,3.50
2023-05-12T11:27:26.424Z,3.00
2023-05-12T11:30:04.471Z,5.00
2023-05-12T11:32:32.424Z,6.00
2023-05-12T11:35:14.829Z,4.50
2023-05-12T11:37:45.027Z,5.00
2023-05-12T11:40:18.583Z,5.00
2023-05-12T11:42:52.335Z,6.00
2023-05-12T11:45:26.590Z,5.50
2023-05-12T11:48:07.250Z,6.00
2023-05-12T11:50:39.240Z,5.00
2023-05-12T11:53:15.226Z,3.00
2023-05-12T11:55:56.671Z,5.00
2023-05-12T11:58:26.942Z,4.00
2023-05-12T12:00:55.400Z,4.00
2023-05-12T12:03:24.932Z,6.00
2023-05-12T12:06:03.987Z,6.00
2023-05-12T12:08:31.980Z,5.00
2023-05-12T12:11:01.981Z,5.00
2023-05-12T12:13:31.399Z,4.00
2023-05-12T12:15:59.237Z,4.50
2023-05-12T12:18:27.236Z,3.67
2023-05-12T12:20:55.279Z,3.33
2023-05-12T12:23:23.095Z,4.50
2023-05-12T12:25:50.965Z,5.00
2023-05-12T12:28:18.841Z,5.00
2023-05-12T12:30:46.707Z,7.50
2023-05-12T12:33:14.630Z,6.00
2023-05-12T12:35:42.512Z,2.00
2023-05-12T12:38:10.449Z,3.50
2023-05-12T12:40:38.294Z,4.00
2023-05-12T12:43:06.351Z,5.00
2023-05-12T12:45:34.458Z,3.00
2023-05-12T12:48:02.371Z,3.50
2023-05-12T12:50:30.486Z,6.00
2023-05-12T12:52:58.435Z,4.50
2023-05-12T12:55:26.386Z,4.00
2023-05-12T12:57:54.782Z,4.00
2023-05-12T13:00:29.934Z,4.00
2023-05-12T13:03:00.985Z,4.50
2023-05-12T13:05:29.152Z,4.00
2023-05-12T13:07:57.073Z,4.00
2023-05-12T13:10:26.161Z,3.50
2023-05-12T13:12:55.479Z,4.50
2023-05-12T13:15:26.683Z,3.00
2023-05-12T13:17:54.666Z,4.00
2023-05-12T13:20:24.862Z,5.00
2023-05-12T13:22:57.872Z,4.00
2023-05-12T13:25:32.313Z,6.00
2023-05-12T13:28:00.306Z,4.50
2023-05-12T13:30:28.177Z,4.50
2023-05-12T13:32:56.893Z,3.00
2023-05-12T13:35:25.288Z,4.00
2023-05-12T13:37:56.781Z,2.50
2023-05-12T13:40:24.826Z,3.00
2023-05-12T13:42:52.869Z,3.00
2023-05-12T13:45:20.926Z,4.50
2023-05-12T13:47:49.195Z,4.00
2023-05-12T13:50:34.507Z,4.00
2023-05-12T13:55:59.259Z,4.00
2023-05-12T13:58:27.120Z,3.00
2023-05-12T14:00:55.117Z,6.00
2023-05-12T14:03:23.209Z,4.00
2023-05-12T14:05:51.050Z,4.00
2023-05-12T14:08:19.018Z,6.50
2023-05-12T14:10:46.953Z,5.00
2023-05-12T14:13:14.871Z,4.67
2023-05-12T14:15:49.171Z,5.67
2023-05-12T14:18:19.831Z,4.00
2023-05-12T14:20:47.905Z,4.50
2023-05-12T14:23:16.707Z,3.50
2023-05-12T14:25:44.524Z,7.00
2023-05-12T14:28:14.486Z,5.00
2023-05-12T14:30:43.714Z,5.00
2023-05-12T14:33:11.916Z,5.00
2023-05-12T14:35:39.796Z,4.00
2023-05-12T14:40:35.421Z,4.67
2023-05-12T14:43:03.580Z,4.50
2023-05-12T14:45:31.742Z,5.00
2023-05-12T14:47:59.949Z,5.50
2023-05-12T14:50:28.747Z,6.00
2023-05-12T14:52:56.833Z,4.00
2023-05-12T14:55:25.449Z,4.50
2023-05-12T14:57:53.385Z,3.33
2023-05-12T15:00:21.808Z,7.00
2023-05-12T15:02:49.838Z,6.00
2023-05-12T15:05:17.940Z,4.50
2023-05-12T15:07:45.885Z,4.00
2023-05-12T15:10:13.760Z,4.00
2023-05-12T15:12:41.640Z,4.00
2023-05-12T15:15:11.655Z,4.00
2023-05-12T15:17:39.912Z,5.00
2023-05-12T15:20:08.559Z,3.00
2023-05-12T15:22:36.792Z,4.00
2023-05-12T15:25:05.190Z,4.00
2023-05-12T15:27:33.327Z,3.50
2023-05-12T15:30:01.183Z,0.00
2023-05-12T15:32:29.218Z,3.00
2023-05-12T15:34:58.655Z,5.00
2023-05-12T15:37:26.627Z,2.00
2023-05-12T15:39:54.510Z,3.00
2023-05-12T15:42:26.275Z,4.50
2023-05-12T15:45:00.455Z,4.00
2023-05-12T15:47:28.536Z,5.00
2023-05-12T15:49:56.545Z,5.00
2023-05-12T15:52:25.610Z,4.00
2023-05-12T15:54:58.184Z,4.50
2023-05-12T15:57:29.215Z,4.00
2023-05-12T15:59:58.982Z,5.00
2023-05-12T16:02:27.071Z,4.00
2023-05-12T16:04:55.351Z,4.00
2023-05-12T16:07:23.243Z,3.00
2023-05-12T16:09:51.386Z,6.00
2023-05-12T16:12:20.355Z,3.33
2023-05-12T16:14:51.481Z,3.00
2023-05-12T16:17:19.336Z,3.50
2023-05-12T16:19:47.602Z,4.00
2023-05-12T16:22:15.530Z,4.00
2023-05-12T16:24:43.534Z,5.00
2023-05-12T16:27:11.533Z,6.00
2023-05-12T16:29:39.648Z,3.00
2023-05-12T16:32:07.799Z,5.00
2023-05-12T16:34:35.707Z,5.00
2023-05-12T16:37:04.088Z,5.00
2023-05-12T16:39:33.672Z,5.00
2023-05-12T16:42:01.646Z,4.00
2023-05-12T16:44:29.654Z,4.00
2023-05-12T16:46:57.925Z,7.00
2023-05-12T16:49:26.162Z,4.00
2023-05-12T16:51:54.005Z,5.00
2023-05-12T16:54:22.119Z,5.00
2023-05-12T16:56:50.210Z,5.00
2023-05-12T16:59:18.092Z,4.00
2023-05-12T17:01:46.237Z,4.00
2023-05-12T17:05:09.857Z,5.00
2023-05-12T17:07:38.236Z,4.00
2023-05-12T17:10:06.907Z,4.50
2023-05-12T17:12:34.942Z,4.00
2023-05-12T17:15:22.264Z,6.00
2023-05-12T17:17:50.495Z,6.50
2023-05-12T17:20:18.928Z,5.00
2023-05-12T17:23:04.522Z,5.00
2023-05-12T17:25:36.782Z,4.00
2023-05-12T17:28:06.921Z,5.50
2023-05-12T17:30:35.059Z,5.50
2023-05-12T17:33:03.431Z,4.00
2023-05-12T17:38:00.874Z,5.00
2023-05-12T17:40:33.897Z,5.00
2023-05-12T17:43:04.600Z,4.50
2023-05-12T17:45:36.777Z,4.50
2023-05-12T17:48:07.231Z,4.00
2023-05-12T17:50:36.292Z,6.00
2023-05-12T17:53:15.051Z,5.00
2023-05-12T17:55:43.565Z,5.00
2023-05-12T17:58:12.969Z,5.50
2023-05-12T18:00:43.201Z,19.00
2023-05-12T18:03:12.173Z,12.00
2023-05-12T18:05:45.652Z,8.00
2023-05-12T18:08:16.365Z,7.50
2023-05-12T18:10:44.943Z,8.00
2023-05-12T18:13:18.655Z,6.00
2023-05-12T18:15:53.251Z,6.00
2023-05-12T18:18:25.278Z,5.00
2023-05-12T18:20:53.471Z,7.00
2023-05-12T18:23:21.434Z,5.00
2023-05-12T18:25:49.585Z,8.00
2023-05-12T18:28:20.443Z,6.00
2023-05-12T18:30:57.971Z,5.00
2023-05-12T18:33:31.443Z,5.50
2023-05-12T18:36:08.366Z,5.00
2023-05-12T18:39:07.687Z,4.67
2023-05-12T18:41:39.158Z,6.00
2023-05-12T18:44:09.033Z,7.00
2023-05-12T18:46:37.284Z,7.00
2023-05-12T18:49:05.662Z,5.00
2023-05-12T18:51:35.675Z,6.00
2023-05-12T18:54:07.530Z,6.00
2023-05-12T18:56:37.091Z,5.00
2023-05-12T18:59:12.533Z,7.00
2023-05-12T19:02:06.373Z,6.00
2023-05-12T19:04:36.917Z,6.00
2023-05-12T19:07:09.671Z,6.00
2023-05-12T19:12:08.518Z,6.00
2023-05-12T19:14:40.014Z,6.50
2023-05-12T19:17:12.982Z,5.50
2023-05-12T19:19:44.395Z,6.00
2023-05-12T19:22:12.664Z,7.00
2023-05-12T19:24:40.867Z,8.00
2023-05-12T19:27:11.210Z,5.00
2023-05-12T19:29:39.306Z,7.00
2023-05-12T19:32:07.773Z,8.00
2023-05-12T19:34:37.129Z,8.00
2023-05-12T19:37:08.273Z,5.00
2023-05-12T19:39:36.294Z,6.00
2023-05-12T19:42:12.124Z,5.00
2023-05-12T19:44:40.184Z,5.00
2023-05-12T19:47:18.523Z,6.50
2023-05-12T19:49:46.633Z,6.00
2023-05-12T19:52:15.060Z,5.00
2023-05-12T19:54:43.554Z,5.00
2023-05-12T19:57:12.074Z,11.00
2023-05-12T19:59:56.985Z,6.00
2023-05-12T20:08:34.376Z,4.00
2023-05-12T20:11:03.295Z,5.00
2023-05-12T20:13:54.855Z,6.50
2023-05-12T20:16:26.986Z,9.50
2023-05-12T20:19:11.084Z,5.00
2023-05-12T20:21:41.652Z,5.00
2023-05-12T20:24:10.853Z,8.00
2023-05-12T20:26:42.193Z,7.00
2023-05-12T20:32:36.663Z,5.00
2023-05-12T20:35:08.705Z,5.00
2023-05-12T20:37:45.163Z,8.00
2023-05-12T20:40:13.456Z,9.50
2023-05-12T20:42:47.584Z,7.50
2023-05-12T20:45:16.340Z,6.00
2023-05-12T20:47:54.205Z,6.00
2023-05-12T20:50:32.327Z,7.00
2023-05-12T20:53:05.020Z,6.00
2023-05-12T20:55:46.294Z,7.00
2023-05-12T20:58:36.968Z,6.00
2023-05-12T21:06:05.723Z,6.00
2023-05-12T21:08:35.138Z,6.50
2023-05-12T21:11:03.119Z,7.50
2023-05-12T21:13:32.021Z,5.00
2023-05-12T21:19:10.234Z,8.00
2023-05-12T21:21:38.844Z,5.00
2023-05-12T21:24:07.759Z,7.00
2023-05-12T21:26:36.079Z,10.50
2023-05-12T21:29:06.922Z,7.00
2023-05-12T21:32:36.855Z,7.00
2023-05-12T21:35:08.388Z,5.50
2023-05-12T21:37:37.865Z,7.00
2023-05-12T21:42:36.396Z,7.00
2023-05-12T21:45:30.561Z,6.00
2023-05-12T21:48:03.025Z,7.00
2023-05-12T21:50:44.189Z,6.00
2023-05-12T21:53:16.580Z,7.00
2023-05-12T21:55:47.833Z,5.50
2023-05-12T21:58:30.357Z,6.00
2023-05-12T22:01:00.217Z,9.00
2023-05-12T22:03:31.775Z,6.00
2023-05-12T22:06:00.150Z,9.00
2023-05-12T22:08:28.887Z,8.00
2023-05-12T22:11:01.628Z,6.00
2023-05-12T22:13:35.060Z,6.00
2023-05-12T22:19:39.941Z,8.00
2023-05-12T22:22:19.420Z,9.00
2023-05-12T22:24:50.723Z,9.00
2023-05-12T22:27:22.821Z,9.00
2023-05-12T22:32:53.131Z,9.00
2023-05-12T22:35:21.654Z,7.00
2023-05-12T22:37:52.180Z,8.00
2023-05-12T22:40:22.510Z,6.50
2023-05-12T22:42:52.896Z,6.00
2023-05-12T22:45:44.472Z,7.00
2023-05-12T22:48:40.487Z,7.00
2023-05-12T22:54:42.491Z,7.00
2023-05-12T22:57:12.714Z,8.00
2023-05-12T22:59:42.356Z,8.00
2023-05-12T23:07:02.457Z,8.00
2023-05-12T23:09:50.875Z,9.50
2023-05-12T23:12:19.172Z,8.00
2023-05-12T23:14:47.619Z,6.50
2023-05-12T23:17:28.600Z,5.00
2023-05-12T23:23:06.034Z,8.00
2023-05-12T23:25:35.658Z,6.00
2023-05-12T23:28:04.202Z,9.00
2023-05-12T23:30:34.132Z,7.00
2023-05-12T23:33:02.469Z,9.00
2023-05-12T23:35:40.150Z,8.00
2023-05-12T23:38:08.691Z,10.00
2023-05-12T23:40:56.501Z,9.00
2023-05-12T23:43:29.440Z,9.00
2023-05-12T23:53:49.327Z,6.00
2023-05-12T23:56:32.205Z,6.00
2023-05-12T23:59:02.362Z,6.00
